EGGP/LPL METAR and TAF weather

Enter ICAO airport designator
Station Type Date Time Source
EGGP METAR 2019/10/15 18:50 UTC NOAA

EGGP 151850Z 16005KT 120V190 7000 3000W -RADZ FEW003 SCT008 BKN016 12/12 Q1002


Station Type Date Time Source
EGGP Decoded METAR 2019/10/15 18:50 UTC NOAA

Liverpool Airport , United Kingdom (EGGP) 53-20N 002-51W
Oct 15, 2019 - 02:50 PM EDT / 2019.10.15 1850 UTC
Wind: from the SSE (160 degrees) at 6 MPH (5 KT) (direction variable):0
Visibility: 4 mile(s):0
Sky conditions: mostly cloudy
Weather: light rain, drizzle
Temperature: 53 F (12 C)
Dew Point: 53 F (12 C)
Relative Humidity: 100%
Pressure (altimeter): 29.59 in. Hg (1002 hPa)
ob: EGGP 151850Z 16005KT 120V190 7000 3000W -RADZ FEW003 SCT008 BKN016 12/12 Q1002
cycle: 19

Station Type Date Time Source
EGGP TAF 2019/10/15 18:06 UTC NOAA

TAF TAF EGGP 151654Z 1518/1618 17006KT 9999 SCT025
BECMG 1523/1602 15016KT
TEMPO 1602/1610 6000 RA BKN012 PROB30
TEMPO 1603/1605 4000 +RA BKN007
BECMG 1606/1609 27012KT SCT025

Example: see airport list